메인 페이지
METAR-TAF:

METAR-TAF

공항 :

Karpathos, 그리스

위도: 35-24-51N, 경도: 027-08-54E, 고도: 6m

현재 날씨관측

예보는 25분 전, 15:50시(UTC)에 발표되었습니다.
북서5kt
온도 20°C
습도 68%
기압 1018 hPa
시정 10km 이상
고도 1800ft 상공 구름 조금, 적란운.
고도 3000ft 상공 구름 보통

METAR: LGKP 211550Z 31005KT 9999 FEW018CB SCT030 20/14 Q1018

시각: 19:15 (16:15 UTC)

예보

예보는 2 시간 15분 전, 14:00시(UTC)에 발표되었습니다.
예보 대상 시간: 21일 15시부터 21일 24시까지 (UTC)
서북서12kt
시정 10km 이상
고도 1800ft 상공 구름 조금
고도 5000ft 상공 구름 보통
확률 40% :
일시적
21일 15시부터 21일 24시까지 (UTC)
시정: 5000m
고도 1800ft 상공 구름 보통
고도 5000ft 상공 구름 많음
확률 30% :
일시적
21일 15시부터 21일 24시까지 (UTC)
시정: 4000m
고도 1600ft 상공 구름 조금, 적란운.
고도 1800ft 상공 구름 보통
고도 5000ft 상공 구름 많음
뇌우, 비

TAF: LGKP 211400Z 2115/2124 30012KT 9999 FEW018 SCT050 PROB40 TEMPO 2115/2124 5000 RA SCT018 BKN050 PROB30 TEMPO 2115/2124 4000 TSRA FEW016CB SCT018 BKN050

4,000개 이상의 공항 관측 자료 및 예보 (METAR 및 TAF 보고).

지도상에서 검색 가능한 기상관측소가 노란 점과 빨간 점으로 표시되어 있습니다.

기상관측소 명을 보려면 표시 위로 마우스를 이동하세요.

날씨 관측과 예보를 보려면 클릭하세요.

지도 변경 : 확대하려면 엑스 표시가 있는 녹색 버튼, 축소하려면 빼기 표시가 있는 녹색 버튼, 다음 페이지의 지도를 보려면 녹색 화살표를 클릭하세요.


METAR-TAF: